sensor_id;sensor_type;location;lat;lon;timestamp;P1;durP1;ratioP1;P2;durP2;ratioP2
61704;SDS011;47627;48.078;11.522;2023-05-07T00:45:40;5.97;;;5.03;;
61704;SDS011;47627;48.078;11.522;2023-05-07T00:48:06;5.15;;;4.53;;
61704;SDS011;47627;48.078;11.522;2023-05-07T00:50:31;5.45;;;4.85;;
61704;SDS011;47627;48.078;11.522;2023-05-07T00:52:57;5.47;;;4.97;;
61704;SDS011;47627;48.078;11.522;2023-05-07T00:55:23;5.07;;;4.55;;
61704;SDS011;47627;48.078;11.522;2023-05-07T02:53:59;5.65;;;5.07;;
61704;SDS011;47627;48.078;11.522;2023-05-07T02:56:26;5.57;;;5.03;;
61704;SDS011;47627;48.078;11.522;2023-05-07T03:01:42;5.30;;;4.80;;
61704;SDS011;47627;48.078;11.522;2023-05-07T03:04:10;8.57;;;5.43;;
61704;SDS011;47627;48.078;11.522;2023-05-07T03:55:11;7.00;;;5.18;;
61704;SDS011;47627;48.078;11.522;2023-05-07T03:57:39;5.80;;;5.30;;
61704;SDS011;47627;48.078;11.522;2023-05-07T04:00:05;5.32;;;4.82;;
61704;SDS011;47627;48.078;11.522;2023-05-07T04:02:45;7.80;;;5.20;;
61704;SDS011;47627;48.078;11.522;2023-05-07T04:05:11;5.15;;;4.65;;
61704;SDS011;47627;48.078;11.522;2023-05-07T04:23:50;7.20;;;5.22;;
61704;SDS011;47627;48.078;11.522;2023-05-07T04:26:15;8.00;;;5.35;;
61704;SDS011;47627;48.078;11.522;2023-05-07T04:31:24;5.30;;;4.80;;
61704;SDS011;47627;48.078;11.522;2023-05-07T04:33:53;6.50;;;5.60;;
61704;SDS011;47627;48.078;11.522;2023-05-07T04:36:18;5.82;;;4.68;;
61704;SDS011;47627;48.078;11.522;2023-05-07T04:38:49;5.75;;;4.65;;
61704;SDS011;47627;48.078;11.522;2023-05-07T04:41:17;7.13;;;5.10;;
61704;SDS011;47627;48.078;11.522;2023-05-07T04:43:42;7.40;;;5.50;;
61704;SDS011;47627;48.078;11.522;2023-05-07T04:46:09;5.65;;;5.07;;
61704;SDS011;47627;48.078;11.522;2023-05-07T04:48:34;6.43;;;4.90;;
61704;SDS011;47627;48.078;11.522;2023-05-07T04:51:01;5.57;;;5.07;;
61704;SDS011;47627;48.078;11.522;2023-05-07T04:53:26;6.43;;;4.78;;
61704;SDS011;47627;48.078;11.522;2023-05-07T04:55:56;5.05;;;4.53;;
61704;SDS011;47627;48.078;11.522;2023-05-07T05:22:46;5.50;;;4.93;;
61704;SDS011;47627;48.078;11.522;2023-05-07T05:25:12;7.00;;;4.55;;
61704;SDS011;47627;48.078;11.522;2023-05-07T05:27:38;4.90;;;4.43;;
61704;SDS011;47627;48.078;11.522;2023-05-07T05:30:04;4.68;;;4.15;;
61704;SDS011;47627;48.078;11.522;2023-05-07T05:32:31;4.18;;;3.78;;
61704;SDS011;47627;48.078;11.522;2023-05-07T05:34:56;6.50;;;4.82;;
61704;SDS011;47627;48.078;11.522;2023-05-07T05:37:22;6.38;;;4.50;;
61704;SDS011;47627;48.078;11.522;2023-05-07T05:39:48;5.53;;;4.28;;
61704;SDS011;47627;48.078;11.522;2023-05-07T05:42:14;4.82;;;4.25;;
61704;SDS011;47627;48.078;11.522;2023-05-07T05:44:39;4.45;;;3.97;;
61704;SDS011;47627;48.078;11.522;2023-05-07T05:56:00;5.00;;;3.80;;
61704;SDS011;47627;48.078;11.522;2023-05-07T06:20:15;5.25;;;3.38;;
61704;SDS011;47627;48.078;11.522;2023-05-07T06:22:40;5.28;;;3.25;;
61704;SDS011;47627;48.078;11.522;2023-05-07T06:25:08;3.47;;;2.80;;
61704;SDS011;47627;48.078;11.522;2023-05-07T07:34:54;2.70;;;1.25;;
61704;SDS011;47627;48.078;11.522;2023-05-07T07:56:22;2.25;;;1.05;;
61704;SDS011;47627;48.078;11.522;2023-05-07T07:58:48;1.67;;;0.90;;
61704;SDS011;47627;48.078;11.522;2023-05-07T08:01:13;1.25;;;1.00;;
61704;SDS011;47627;48.078;11.522;2023-05-07T08:03:39;1.40;;;0.93;;
61704;SDS011;47627;48.078;11.522;2023-05-07T08:06:05;1.50;;;0.82;;
61704;SDS011;47627;48.078;11.522;2023-05-07T08:08:33;4.28;;;1.17;;
61704;SDS011;47627;48.078;11.522;2023-05-07T08:10:58;3.00;;;1.35;;
61704;SDS011;47627;48.078;11.522;2023-05-07T08:13:28;2.95;;;1.10;;
61704;SDS011;47627;48.078;11.522;2023-05-07T08:15:54;1.75;;;1.00;;
61704;SDS011;47627;48.078;11.522;2023-05-07T08:18:20;3.35;;;1.00;;
61704;SDS011;47627;48.078;11.522;2023-05-07T08:20:45;1.65;;;1.08;;
61704;SDS011;47627;48.078;11.522;2023-05-07T08:23:15;2.15;;;1.15;;
61704;SDS011;47627;48.078;11.522;2023-05-07T08:25:42;1.33;;;0.77;;
61704;SDS011;47627;48.078;11.522;2023-05-07T08:28:08;2.55;;;0.90;;
61704;SDS011;47627;48.078;11.522;2023-05-07T08:30:33;2.63;;;0.90;;
61704;SDS011;47627;48.078;11.522;2023-05-07T08:32:59;1.80;;;0.93;;
61704;SDS011;47627;48.078;11.522;2023-05-07T08:35:25;2.85;;;0.90;;
61704;SDS011;47627;48.078;11.522;2023-05-07T08:37:51;1.42;;;0.70;;
61704;SDS011;47627;48.078;11.522;2023-05-07T08:40:17;4.65;;;1.08;;
61704;SDS011;47627;48.078;11.522;2023-05-07T08:42:43;3.25;;;1.38;;
61704;SDS011;47627;48.078;11.522;2023-05-07T08:45:09;4.57;;;0.95;;
61704;SDS011;47627;48.078;11.522;2023-05-07T08:47:44;1.77;;;1.20;;
61704;SDS011;47627;48.078;11.522;2023-05-07T08:50:14;2.83;;;0.90;;
61704;SDS011;47627;48.078;11.522;2023-05-07T08:52:40;1.88;;;1.00;;
61704;SDS011;47627;48.078;11.522;2023-05-07T08:55:06;1.33;;;0.93;;
61704;SDS011;47627;48.078;11.522;2023-05-07T08:57:32;4.13;;;1.00;;
61704;SDS011;47627;48.078;11.522;2023-05-07T09:00:13;1.58;;;1.25;;
61704;SDS011;47627;48.078;11.522;2023-05-07T09:02:40;3.15;;;1.30;;
61704;SDS011;47627;48.078;11.522;2023-05-07T09:05:07;1.88;;;1.23;;
61704;SDS011;47627;48.078;11.522;2023-05-07T09:07:33;2.35;;;1.40;;
61704;SDS011;47627;48.078;11.522;2023-05-07T09:10:03;2.85;;;1.10;;
61704;SDS011;47627;48.078;11.522;2023-05-07T09:12:30;1.77;;;1.17;;
61704;SDS011;47627;48.078;11.522;2023-05-07T09:14:56;2.35;;;1.20;;
61704;SDS011;47627;48.078;11.522;2023-05-07T09:17:22;4.00;;;1.50;;
61704;SDS011;47627;48.078;11.522;2023-05-07T09:19:47;1.60;;;1.48;;
61704;SDS011;47627;48.078;11.522;2023-05-07T09:22:14;2.35;;;1.98;;
61704;SDS011;47627;48.078;11.522;2023-05-07T09:24:50;5.07;;;1.70;;
61704;SDS011;47627;48.078;11.522;2023-05-07T10:42:59;2.22;;;1.30;;
61704;SDS011;47627;48.078;11.522;2023-05-07T10:45:27;3.65;;;1.50;;
61704;SDS011;47627;48.078;11.522;2023-05-07T11:14:54;1.92;;;1.20;;
61704;SDS011;47627;48.078;11.522;2023-05-07T12:30:20;3.60;;;1.70;;
61704;SDS011;47627;48.078;11.522;2023-05-07T12:32:45;2.63;;;2.42;;
61704;SDS011;47627;48.078;11.522;2023-05-07T12:35:10;2.05;;;1.67;;
61704;SDS011;47627;48.078;11.522;2023-05-07T14:30:59;2.25;;;1.30;;
61704;SDS011;47627;48.078;11.522;2023-05-07T14:33:24;1.52;;;1.40;;
61704;SDS011;47627;48.078;11.522;2023-05-07T14:35:50;2.47;;;2.00;;
61704;SDS011;47627;48.078;11.522;2023-05-07T14:59:51;3.55;;;1.50;;
61704;SDS011;47627;48.078;11.522;2023-05-07T15:02:16;3.65;;;1.75;;
61704;SDS011;47627;48.078;11.522;2023-05-07T15:04:42;4.38;;;1.70;;
61704;SDS011;47627;48.078;11.522;2023-05-07T15:09:52;1.77;;;1.65;;
61704;SDS011;47627;48.078;11.522;2023-05-07T15:12:17;2.17;;;1.27;;
61704;SDS011;47627;48.078;11.522;2023-05-07T15:14:42;1.38;;;1.23;;
61704;SDS011;47627;48.078;11.522;2023-05-07T15:19:44;3.92;;;1.60;;
61704;SDS011;47627;48.078;11.522;2023-05-07T15:22:10;3.47;;;1.67;;
61704;SDS011;47627;48.078;11.522;2023-05-07T15:24:35;4.10;;;1.60;;
61704;SDS011;47627;48.078;11.522;2023-05-07T15:27:00;4.50;;;1.60;;
61704;SDS011;47627;48.078;11.522;2023-05-07T15:29:27;2.97;;;1.60;;
61704;SDS011;47627;48.078;11.522;2023-05-07T15:31:54;2.20;;;1.73;;
61704;SDS011;47627;48.078;11.522;2023-05-07T15:34:20;2.75;;;1.77;;
61704;SDS011;47627;48.078;11.522;2023-05-07T15:36:45;2.45;;;1.50;;
61704;SDS011;47627;48.078;11.522;2023-05-07T15:39:11;2.58;;;1.63;;
61704;SDS011;47627;48.078;11.522;2023-05-07T15:41:36;2.22;;;1.42;;
61704;SDS011;47627;48.078;11.522;2023-05-07T15:44:04;2.03;;;1.42;;
61704;SDS011;47627;48.078;11.522;2023-05-07T15:46:29;4.80;;;1.95;;
61704;SDS011;47627;48.078;11.522;2023-05-07T15:51:29;1.90;;;1.80;;
61704;SDS011;47627;48.078;11.522;2023-05-07T15:53:56;2.38;;;1.77;;
61704;SDS011;47627;48.078;11.522;2023-05-07T15:56:21;3.58;;;1.80;;
61704;SDS011;47627;48.078;11.522;2023-05-07T15:58:46;2.13;;;1.77;;
61704;SDS011;47627;48.078;11.522;2023-05-07T16:01:13;2.97;;;1.92;;
61704;SDS011;47627;48.078;11.522;2023-05-07T16:03:39;2.28;;;1.63;;
61704;SDS011;47627;48.078;11.522;2023-05-07T16:06:05;2.92;;;1.70;;
61704;SDS011;47627;48.078;11.522;2023-05-07T16:11:05;3.42;;;1.77;;
61704;SDS011;47627;48.078;11.522;2023-05-07T16:13:30;2.20;;;1.90;;
61704;SDS011;47627;48.078;11.522;2023-05-07T16:15:56;2.97;;;1.83;;
61704;SDS011;47627;48.078;11.522;2023-05-07T16:18:22;2.63;;;1.90;;
61704;SDS011;47627;48.078;11.522;2023-05-07T16:20:47;3.92;;;2.05;;
61704;SDS011;47627;48.078;11.522;2023-05-07T16:23:12;2.67;;;1.42;;
61704;SDS011;47627;48.078;11.522;2023-05-07T16:25:38;3.83;;;1.80;;
61704;SDS011;47627;48.078;11.522;2023-05-07T16:28:03;3.63;;;1.80;;
61704;SDS011;47627;48.078;11.522;2023-05-07T16:30:28;2.70;;;1.42;;
61704;SDS011;47627;48.078;11.522;2023-05-07T16:32:53;1.27;;;1.17;;
61704;SDS011;47627;48.078;11.522;2023-05-07T16:35:19;5.50;;;2.75;;
61704;SDS011;47627;48.078;11.522;2023-05-07T16:37:44;5.45;;;3.75;;
61704;SDS011;47627;48.078;11.522;2023-05-07T16:40:09;2.63;;;2.10;;
61704;SDS011;47627;48.078;11.522;2023-05-07T16:42:35;5.07;;;2.42;;
61704;SDS011;47627;48.078;11.522;2023-05-07T16:45:01;2.35;;;2.00;;
61704;SDS011;47627;48.078;11.522;2023-05-07T16:47:27;4.03;;;2.38;;
61704;SDS011;47627;48.078;11.522;2023-05-07T16:49:53;3.70;;;2.35;;
61704;SDS011;47627;48.078;11.522;2023-05-07T16:52:18;2.10;;;1.90;;
61704;SDS011;47627;48.078;11.522;2023-05-07T16:54:43;3.05;;;2.58;;
61704;SDS011;47627;48.078;11.522;2023-05-07T17:51:08;3.35;;;1.70;;
61704;SDS011;47627;48.078;11.522;2023-05-07T17:53:33;1.42;;;1.27;;
61704;SDS011;47627;48.078;11.522;2023-05-07T17:55:58;3.35;;;1.73;;
61704;SDS011;47627;48.078;11.522;2023-05-07T17:58:24;2.67;;;1.60;;
61704;SDS011;47627;48.078;11.522;2023-05-07T18:00:50;3.47;;;1.70;;
61704;SDS011;47627;48.078;11.522;2023-05-07T18:03:15;2.60;;;1.60;;
61704;SDS011;47627;48.078;11.522;2023-05-07T18:05:41;2.15;;;1.40;;
61704;SDS011;47627;48.078;11.522;2023-05-07T18:08:06;2.25;;;1.60;;
61704;SDS011;47627;48.078;11.522;2023-05-07T18:10:31;3.25;;;1.75;;
61704;SDS011;47627;48.078;11.522;2023-05-07T18:12:57;1.70;;;1.60;;
61704;SDS011;47627;48.078;11.522;2023-05-07T18:15:22;2.67;;;1.80;;
61704;SDS011;47627;48.078;11.522;2023-05-07T18:17:47;4.30;;;2.20;;
61704;SDS011;47627;48.078;11.522;2023-05-07T18:20:12;2.80;;;1.90;;
61704;SDS011;47627;48.078;11.522;2023-05-07T18:22:38;2.13;;;1.60;;
61704;SDS011;47627;48.078;11.522;2023-05-07T18:25:03;1.55;;;1.45;;
61704;SDS011;47627;48.078;11.522;2023-05-07T18:27:29;4.45;;;1.80;;
61704;SDS011;47627;48.078;11.522;2023-05-07T18:29:55;1.95;;;1.75;;
61704;SDS011;47627;48.078;11.522;2023-05-07T18:32:20;3.35;;;1.90;;
61704;SDS011;47627;48.078;11.522;2023-05-07T18:34:46;2.47;;;2.03;;
61704;SDS011;47627;48.078;11.522;2023-05-07T18:37:11;2.60;;;1.80;;
61704;SDS011;47627;48.078;11.522;2023-05-07T18:39:36;2.47;;;1.67;;
61704;SDS011;47627;48.078;11.522;2023-05-07T18:42:01;2.33;;;1.70;;
61704;SDS011;47627;48.078;11.522;2023-05-07T18:44:29;3.63;;;1.50;;
61704;SDS011;47627;48.078;11.522;2023-05-07T18:46:55;1.65;;;1.55;;
61704;SDS011;47627;48.078;11.522;2023-05-07T18:49:20;3.00;;;1.88;;
61704;SDS011;47627;48.078;11.522;2023-05-07T18:51:46;4.18;;;2.00;;
61704;SDS011;47627;48.078;11.522;2023-05-07T18:54:11;5.28;;;1.80;;
61704;SDS011;47627;48.078;11.522;2023-05-07T18:56:36;2.63;;;1.85;;
61704;SDS011;47627;48.078;11.522;2023-05-07T18:59:01;2.42;;;1.88;;
61704;SDS011;47627;48.078;11.522;2023-05-07T19:01:27;1.90;;;1.75;;
61704;SDS011;47627;48.078;11.522;2023-05-07T19:03:52;4.63;;;2.30;;
61704;SDS011;47627;48.078;11.522;2023-05-07T19:06:17;2.65;;;2.00;;
61704;SDS011;47627;48.078;11.522;2023-05-07T19:08:42;2.53;;;2.00;;
61704;SDS011;47627;48.078;11.522;2023-05-07T19:11:08;3.40;;;1.88;;
61704;SDS011;47627;48.078;11.522;2023-05-07T19:13:33;3.33;;;1.77;;
61704;SDS011;47627;48.078;11.522;2023-05-07T19:15:58;4.45;;;2.20;;
61704;SDS011;47627;48.078;11.522;2023-05-07T19:18:23;3.15;;;1.90;;
61704;SDS011;47627;48.078;11.522;2023-05-07T19:20:49;2.72;;;2.20;;
61704;SDS011;47627;48.078;11.522;2023-05-07T19:23:14;2.80;;;2.22;;
61704;SDS011;47627;48.078;11.522;2023-05-07T19:25:39;2.80;;;1.70;;
61704;SDS011;47627;48.078;11.522;2023-05-07T19:28:05;2.63;;;1.98;;
61704;SDS011;47627;48.078;11.522;2023-05-07T19:30:30;2.47;;;1.58;;
61704;SDS011;47627;48.078;11.522;2023-05-07T19:32:57;2.55;;;2.15;;
61704;SDS011;47627;48.078;11.522;2023-05-07T19:35:22;2.20;;;2.00;;
61704;SDS011;47627;48.078;11.522;2023-05-07T19:37:48;2.42;;;1.90;;
61704;SDS011;47627;48.078;11.522;2023-05-07T19:40:13;2.38;;;1.90;;
61704;SDS011;47627;48.078;11.522;2023-05-07T19:42:38;3.50;;;2.22;;
61704;SDS011;47627;48.078;11.522;2023-05-07T19:45:04;3.30;;;1.83;;
61704;SDS011;47627;48.078;11.522;2023-05-07T20:03:41;2.20;;;1.98;;
61704;SDS011;47627;48.078;11.522;2023-05-07T20:06:06;3.35;;;1.60;;
61704;SDS011;47627;48.078;11.522;2023-05-07T20:08:31;3.85;;;1.90;;
61704;SDS011;47627;48.078;11.522;2023-05-07T20:10:57;3.22;;;2.10;;
61704;SDS011;47627;48.078;11.522;2023-05-07T20:13:23;3.88;;;2.10;;
61704;SDS011;47627;48.078;11.522;2023-05-07T20:15:48;3.20;;;2.30;;
61704;SDS011;47627;48.078;11.522;2023-05-07T20:18:13;3.85;;;2.92;;
61704;SDS011;47627;48.078;11.522;2023-05-07T20:20:40;4.35;;;2.70;;
61704;SDS011;47627;48.078;11.522;2023-05-07T20:23:05;3.63;;;2.92;;
61704;SDS011;47627;48.078;11.522;2023-05-07T20:25:30;7.75;;;2.80;;
61704;SDS011;47627;48.078;11.522;2023-05-07T20:27:55;5.03;;;3.80;;
61704;SDS011;47627;48.078;11.522;2023-05-07T20:30:21;3.55;;;3.10;;
61704;SDS011;47627;48.078;11.522;2023-05-07T20:32:48;6.95;;;3.33;;
61704;SDS011;47627;48.078;11.522;2023-05-07T20:35:13;3.72;;;3.30;;
61704;SDS011;47627;48.078;11.522;2023-05-07T20:37:38;5.03;;;4.05;;
61704;SDS011;47627;48.078;11.522;2023-05-07T20:40:04;4.72;;;3.70;;
61704;SDS011;47627;48.078;11.522;2023-05-07T20:42:30;5.68;;;3.80;;
61704;SDS011;47627;48.078;11.522;2023-05-07T20:44:55;5.30;;;4.53;;
61704;SDS011;47627;48.078;11.522;2023-05-07T20:47:20;4.78;;;4.38;;
61704;SDS011;47627;48.078;11.522;2023-05-07T20:49:49;4.63;;;4.07;;
61704;SDS011;47627;48.078;11.522;2023-05-07T20:52:15;7.32;;;5.47;;
61704;SDS011;47627;48.078;11.522;2023-05-07T20:54:40;5.28;;;4.78;;
61704;SDS011;47627;48.078;11.522;2023-05-07T20:57:07;6.18;;;4.20;;
61704;SDS011;47627;48.078;11.522;2023-05-07T20:59:33;6.25;;;5.30;;
61704;SDS011;47627;48.078;11.522;2023-05-07T21:01:59;6.90;;;5.35;;
61704;SDS011;47627;48.078;11.522;2023-05-07T21:04:24;4.95;;;4.53;;
61704;SDS011;47627;48.078;11.522;2023-05-07T21:06:50;6.10;;;5.05;;
61704;SDS011;47627;48.078;11.522;2023-05-07T21:09:15;5.82;;;5.22;;
61704;SDS011;47627;48.078;11.522;2023-05-07T21:11:40;5.45;;;4.90;;
61704;SDS011;47627;48.078;11.522;2023-05-07T21:14:05;5.53;;;4.95;;
61704;SDS011;47627;48.078;11.522;2023-05-07T21:16:31;7.55;;;5.82;;
61704;SDS011;47627;48.078;11.522;2023-05-07T21:18:56;5.97;;;5.40;;
61704;SDS011;47627;48.078;11.522;2023-05-07T21:21:21;5.93;;;5.32;;
61704;SDS011;47627;48.078;11.522;2023-05-07T21:23:47;6.10;;;5.50;;
61704;SDS011;47627;48.078;11.522;2023-05-07T21:26:18;6.80;;;5.05;;
61704;SDS011;47627;48.078;11.522;2023-05-07T21:28:44;6.15;;;5.55;;
61704;SDS011;47627;48.078;11.522;2023-05-07T21:31:10;5.80;;;5.30;;
61704;SDS011;47627;48.078;11.522;2023-05-07T21:33:35;7.10;;;6.40;;
61704;SDS011;47627;48.078;11.522;2023-05-07T21:36:00;7.82;;;6.13;;
61704;SDS011;47627;48.078;11.522;2023-05-07T21:38:25;6.30;;;5.40;;
61704;SDS011;47627;48.078;11.522;2023-05-07T21:40:51;7.97;;;6.70;;
61704;SDS011;47627;48.078;11.522;2023-05-07T21:43:16;7.45;;;6.50;;
61704;SDS011;47627;48.078;11.522;2023-05-07T21:45:41;7.75;;;6.20;;
61704;SDS011;47627;48.078;11.522;2023-05-07T21:48:06;7.40;;;6.07;;
61704;SDS011;47627;48.078;11.522;2023-05-07T21:50:32;6.47;;;5.80;;
61704;SDS011;47627;48.078;11.522;2023-05-07T21:52:57;8.23;;;6.25;;
61704;SDS011;47627;48.078;11.522;2023-05-07T21:55:22;6.63;;;5.97;;
61704;SDS011;47627;48.078;11.522;2023-05-07T21:57:47;7.55;;;6.18;;
61704;SDS011;47627;48.078;11.522;2023-05-07T22:00:13;7.80;;;6.20;;
61704;SDS011;47627;48.078;11.522;2023-05-07T22:02:38;7.30;;;6.07;;
61704;SDS011;47627;48.078;11.522;2023-05-07T22:05:03;7.85;;;6.78;;
61704;SDS011;47627;48.078;11.522;2023-05-07T22:07:29;8.32;;;6.68;;
61704;SDS011;47627;48.078;11.522;2023-05-07T22:09:54;7.97;;;6.32;;
61704;SDS011;47627;48.078;11.522;2023-05-07T22:12:19;7.25;;;6.35;;
61704;SDS011;47627;48.078;11.522;2023-05-07T22:14:45;6.82;;;6.10;;
61704;SDS011;47627;48.078;11.522;2023-05-07T22:17:10;8.40;;;6.20;;
61704;SDS011;47627;48.078;11.522;2023-05-07T22:19:35;6.45;;;5.85;;
61704;SDS011;47627;48.078;11.522;2023-05-07T22:22:00;6.43;;;5.70;;
61704;SDS011;47627;48.078;11.522;2023-05-07T22:24:26;7.13;;;6.28;;
61704;SDS011;47627;48.078;11.522;2023-05-07T22:26:52;7.03;;;6.32;;
61704;SDS011;47627;48.078;11.522;2023-05-07T22:29:17;7.68;;;6.88;;
61704;SDS011;47627;48.078;11.522;2023-05-07T22:31:44;8.32;;;6.68;;
61704;SDS011;47627;48.078;11.522;2023-05-07T22:34:09;7.43;;;6.72;;
61704;SDS011;47627;48.078;11.522;2023-05-07T22:36:35;7.53;;;6.45;;
61704;SDS011;47627;48.078;11.522;2023-05-07T22:39:00;7.82;;;7.03;;
61704;SDS011;47627;48.078;11.522;2023-05-07T22:41:26;7.72;;;6.85;;
61704;SDS011;47627;48.078;11.522;2023-05-07T22:43:52;9.30;;;7.38;;
61704;SDS011;47627;48.078;11.522;2023-05-07T22:46:17;7.43;;;6.63;;
61704;SDS011;47627;48.078;11.522;2023-05-07T22:48:42;8.02;;;6.63;;
61704;SDS011;47627;48.078;11.522;2023-05-07T22:51:11;9.10;;;6.63;;
61704;SDS011;47627;48.078;11.522;2023-05-07T22:53:36;7.25;;;6.53;;
61704;SDS011;47627;48.078;11.522;2023-05-07T22:56:03;7.80;;;7.00;;
61704;SDS011;47627;48.078;11.522;2023-05-07T22:58:28;7.68;;;6.93;;
61704;SDS011;47627;48.078;11.522;2023-05-07T23:00:54;8.10;;;6.93;;
61704;SDS011;47627;48.078;11.522;2023-05-07T23:03:19;8.13;;;7.32;;
61704;SDS011;47627;48.078;11.522;2023-05-07T23:05:44;7.65;;;6.95;;
61704;SDS011;47627;48.078;11.522;2023-05-07T23:08:09;9.65;;;7.18;;
61704;SDS011;47627;48.078;11.522;2023-05-07T23:10:35;10.50;;;7.25;;
61704;SDS011;47627;48.078;11.522;2023-05-07T23:13:00;9.93;;;7.47;;
61704;SDS011;47627;48.078;11.522;2023-05-07T23:15:26;7.75;;;6.97;;
61704;SDS011;47627;48.078;11.522;2023-05-07T23:17:53;8.05;;;7.25;;
61704;SDS011;47627;48.078;11.522;2023-05-07T23:20:18;12.32;;;7.10;;
61704;SDS011;47627;48.078;11.522;2023-05-07T23:22:44;8.32;;;7.43;;
61704;SDS011;47627;48.078;11.522;2023-05-07T23:25:09;10.52;;;7.22;;
61704;SDS011;47627;48.078;11.522;2023-05-07T23:27:35;8.15;;;7.07;;
61704;SDS011;47627;48.078;11.522;2023-05-07T23:30:00;7.38;;;6.68;;
61704;SDS011;47627;48.078;11.522;2023-05-07T23:32:25;8.07;;;7.25;;
61704;SDS011;47627;48.078;11.522;2023-05-07T23:34:51;9.40;;;7.15;;
61704;SDS011;47627;48.078;11.522;2023-05-07T23:37:19;7.78;;;6.55;;
61704;SDS011;47627;48.078;11.522;2023-05-07T23:39:44;8.48;;;7.07;;
61704;SDS011;47627;48.078;11.522;2023-05-07T23:42:10;9.27;;;7.25;;
61704;SDS011;47627;48.078;11.522;2023-05-07T23:44:35;8.70;;;7.43;;
61704;SDS011;47627;48.078;11.522;2023-05-07T23:47:00;8.70;;;7.80;;
61704;SDS011;47627;48.078;11.522;2023-05-07T23:49:25;8.27;;;7.47;;
61704;SDS011;47627;48.078;11.522;2023-05-07T23:51:50;8.32;;;7.53;;
61704;SDS011;47627;48.078;11.522;2023-05-07T23:54:16;8.10;;;7.30;;
61704;SDS011;47627;48.078;11.522;2023-05-07T23:56:41;8.57;;;7.80;;
61704;SDS011;47627;48.078;11.522;2023-05-07T23:59:07;10.05;;;8.68;;
